createdAt,value
2023-03-02T00:01:16.024Z,7.288027027646604
2023-03-02T00:04:22.251Z,7.312432754726979
2023-03-02T00:07:21.617Z,7.344545563521388
2023-03-02T00:11:16.260Z,7.413909269316354
2023-03-02T00:14:16.777Z,7.45180242729266
2023-03-02T00:17:16.827Z,7.534011366817959
2023-03-02T00:21:17.085Z,7.537864912686291
2023-03-02T00:24:17.123Z,7.561628449158524
2023-03-02T00:27:16.911Z,7.564197480501389
2023-03-02T00:31:16.949Z,7.626496512841641
2023-03-02T00:34:17.286Z,7.590530055960789
2023-03-02T00:37:17.194Z,7.6053019918825155
2023-03-02T00:41:16.472Z,7.676592672976494
2023-03-02T00:44:17.921Z,7.731184673856842
2023-03-02T00:47:16.490Z,7.748525669247556
2023-03-02T00:51:17.031Z,7.822385501560348
2023-03-02T00:54:16.619Z,7.796052858793791
2023-03-02T00:57:16.608Z,7.816605164688463
2023-03-02T01:01:18.648Z,7.854498490889455
2023-03-02T01:04:17.297Z,7.892391832920202
2023-03-02T01:07:19.506Z,7.888538271990638
2023-03-02T01:11:20.271Z,7.921935805485646
2023-03-02T01:14:18.007Z,7.9829505618927215
2023-03-02T01:17:17.726Z,7.98808864851635
2023-03-02T01:21:16.622Z,8.000933866348714
2023-03-02T01:24:16.979Z,8.011852302936404
2023-03-02T01:27:17.025Z,8.011210041924278
2023-03-02T01:31:16.363Z,8.058095107760256
2023-03-02T01:34:16.715Z,8.070940335506112
2023-03-02T01:37:16.771Z,8.06708676699136
2023-03-02T01:41:16.886Z,8.122321264679432
2023-03-02T01:44:50.822Z,8.132597454006554
2023-03-02T01:47:21.014Z,8.141589120622758
2023-03-02T01:51:21.377Z,8.186547467073343
2023-03-02T01:54:21.084Z,8.222514160277296
2023-03-02T01:57:21.912Z,8.237286199117444
2023-03-02T02:01:16.473Z,8.274537438178958
2023-03-02T02:04:17.647Z,8.26297670717795
2023-03-02T02:07:16.512Z,8.19232782751933
2023-03-02T02:11:16.616Z,8.154434360192045
2023-03-02T02:14:16.691Z,8.101768889517643
2023-03-02T02:17:18.331Z,8.054241539791201
2023-03-02T02:21:17.130Z,8.033689180054443
2023-03-02T02:24:22.239Z,7.9566178725145615
2023-03-02T02:27:16.271Z,7.968820825178409
2023-03-02T02:31:21.122Z,7.954048830057673
2023-03-02T02:34:21.657Z,7.847433632261618
2023-03-02T02:37:21.783Z,7.865416909851137
2023-03-02T02:41:21.781Z,7.865416909851137
2023-03-02T02:44:18.342Z,7.830092617962509
2023-03-02T02:47:20.217Z,7.8326616569087495
2023-03-02T02:51:21.954Z,7.853856230991459
2023-03-02T02:54:18.053Z,7.836515215464533
2023-03-02T02:57:19.642Z,7.832019397165368
2023-03-02T03:01:20.615Z,7.787061226429159
2023-03-02T03:04:20.422Z,7.768435705080629
2023-03-02T03:07:21.804Z,7.763939890155688
2023-03-02T03:11:18.228Z,7.7382495234306585
2023-03-02T03:14:19.341Z,7.764582149417038
2023-03-02T03:17:17.059Z,7.765866667953378
2023-03-02T03:21:18.597Z,7.789630264156676
2023-03-02T03:24:16.968Z,7.79091478304772
2023-03-02T03:27:16.657Z,7.78513444818127
2023-03-02T03:31:16.771Z,7.817247424322704
2023-03-02T03:34:17.081Z,7.838441994803816
2023-03-02T03:37:19.021Z,7.860278830176048
2023-03-02T03:41:16.346Z,7.862847869977213
2023-03-02T03:44:16.874Z,7.905879297462889
2023-03-02T03:47:16.742Z,7.909090598840066
2023-03-02T03:51:18.395Z,7.948910745362173
2023-03-02T03:54:16.920Z,7.932854232564568
2023-03-02T03:57:16.964Z,7.920009024372848
2023-03-02T04:01:16.753Z,7.933496493021903
2023-03-02T04:04:20.126Z,7.9264316282413345
2023-03-02T04:07:17.282Z,7.918724503653721
2023-03-02T04:11:16.938Z,7.91037511942277
2023-03-02T04:14:19.198Z,7.944414921492353
2023-03-02T04:17:17.204Z,7.9829505618927215
2023-03-02T04:21:16.592Z,8.045249881833389
2023-03-02T04:24:18.310Z,8.038827269552076
2023-03-02T04:27:18.098Z,8.083143303549514
2023-03-02T04:31:16.950Z,8.142873644497831
2023-03-02T04:34:17.145Z,8.116540908694514
2023-03-02T04:37:16.861Z,8.162141504806732
2023-03-02T04:41:16.663Z,8.120394479310198
2023-03-02T04:44:18.099Z,8.111402814794928
2023-03-02T04:47:16.893Z,8.084427826596947
2023-03-02T04:51:20.985Z,8.108833767954275
2023-03-02T04:54:19.156Z,8.125532573719102
2023-03-02T04:57:17.773Z,8.137735549106674
2023-03-02T05:01:18.132Z,8.176271271634414
2023-03-02T05:04:17.641Z,8.113971861708341
2023-03-02T05:07:16.905Z,8.077362950061161
2023-03-02T05:11:22.691Z,7.985519605168156
2023-03-02T05:14:16.668Z,7.963682739646174
2023-03-02T05:17:16.569Z,7.9476262242337725
2023-03-02T05:21:17.827Z,7.9264316282413345
2023-03-02T05:24:17.082Z,7.894960873630862
2023-03-02T05:27:16.807Z,7.887896011851626
2023-03-02T05:31:18.916Z,7.932211972111782
2023-03-02T05:34:17.698Z,7.878262110312153
2023-03-02T05:37:20.210Z,7.866059169830987
2023-03-02T05:41:17.293Z,7.915513201935482
2023-03-02T05:44:17.159Z,7.913586420959109
2023-03-02T05:47:17.128Z,7.929642930346108
2023-03-02T05:51:16.550Z,7.993226735431017
2023-03-02T05:54:18.333Z,8.017632652250176
2023-03-02T05:57:16.990Z,7.986161865998383
2023-03-02T06:01:16.382Z,8.030477874266216
2023-03-02T06:04:19.216Z,8.00157612728808
2023-03-02T06:07:16.696Z,8.049103449420453
2023-03-02T06:11:16.138Z,8.075436165646897
2023-03-02T06:14:16.272Z,8.07864747302674
2023-03-02T06:17:16.273Z,8.158930194471031
2023-03-02T06:21:16.503Z,8.16920638794545
2023-03-02T06:24:16.843Z,8.181409369208358
2023-03-02T06:27:16.843Z,8.178198058190537
2023-03-02T06:31:16.648Z,8.231505835806548
2023-03-02T06:34:16.881Z,8.279033278410589
2023-03-02T06:37:16.891Z,8.300870219848093
2023-03-02T06:41:16.372Z,8.351609015838767
2023-03-02T06:44:17.471Z,8.385006719827652
2023-03-02T06:47:16.705Z,8.381153137970614
2023-03-02T06:51:16.175Z,8.421615755634502
2023-03-02T06:54:16.524Z,8.474281412009532
2023-03-02T06:57:16.520Z,8.510890483846016
2023-03-02T07:01:16.874Z,8.54878410008032
2023-03-02T07:04:17.411Z,8.5975962392361
2023-03-02T07:07:17.166Z,8.715773105967765
2023-03-02T07:11:16.209Z,8.829454258923942
2023-03-02T07:14:16.344Z,8.917444853656434
2023-03-02T07:17:16.779Z,9.013785018766157
2023-03-02T07:21:17.008Z,9.14930369087997
2023-03-02T07:24:16.871Z,9.215457429003527
2023-03-02T07:27:16.830Z,9.346480509045886
2023-03-02T07:31:16.372Z,9.473007878705175
2023-03-02T07:34:16.821Z,9.566779545717873
2023-03-02T07:37:16.840Z,9.661835855049139
2023-03-02T07:41:17.251Z,9.778087287670587
2023-03-02T07:44:16.996Z,9.925168042976656
2023-03-02T07:47:17.315Z,10.002241023077294
2023-03-02T07:51:16.542Z,10.103720546748082
2023-03-02T07:54:16.765Z,10.187858718910956
2023-03-02T07:57:18.352Z,10.301541716704378
2023-03-02T08:01:16.877Z,10.380541849919336
2023-03-02T08:04:16.825Z,10.469176227616936
2023-03-02T08:07:16.912Z,10.543038275185973
2023-03-02T08:11:17.931Z,10.697185350791552
2023-03-02T08:14:16.869Z,10.74728320676113
2023-03-02T08:17:16.869Z,10.853259531708408
2023-03-02T08:21:18.454Z,10.92647961035409
2023-03-02T08:24:17.022Z,11.006764852235573
2023-03-02T08:27:17.093Z,11.06328570513906
2023-03-02T08:31:16.383Z,11.121091159306525
2023-03-02T08:34:16.337Z,11.179538933748791
2023-03-02T08:37:16.310Z,11.24697872028337
2023-03-02T08:41:18.641Z,11.335613944547731
2023-03-02T08:44:18.249Z,11.38956586258755
2023-03-02T08:47:17.148Z,11.413972693194228
2023-03-02T08:51:17.751Z,11.537291516667755
2023-03-02T08:54:16.625Z,11.58803212292123
2023-03-02T08:57:16.207Z,11.67281395872351
2023-03-02T09:01:18.086Z,11.69272485589354
2023-03-02T09:04:16.511Z,11.715847193575247
2023-03-02T09:07:17.629Z,11.778791364900826
2023-03-02T09:31:16.904Z,12.23288989495568
2023-03-02T09:34:16.755Z,12.276565686696358
2023-03-02T09:37:16.694Z,12.317030041927136
2023-03-02T09:41:40.035Z,12.41273152532749
2023-03-02T09:44:35.282Z,12.44548843209959
2023-03-02T09:47:34.576Z,12.507148523992873
2023-03-02T09:51:30.923Z,12.534124827374763
2023-03-02T09:54:21.677Z,12.56816636451922
2023-03-02T09:57:22.069Z,12.548897568340271
2023-03-02T10:01:21.117Z,12.652949116328182
2023-03-02T10:04:23.380Z,12.608630849816837
2023-03-02T10:07:21.762Z,12.595784979512974
2023-03-02T10:11:25.966Z,12.599638740413138
2023-03-02T10:14:22.553Z,12.632395714674294
2023-03-02T10:17:32.237Z,12.633680302141238
2023-03-02T10:21:27.910Z,12.704332640835583
2023-03-02T10:24:29.204Z,12.722959175656797
2023-03-02T10:27:23.892Z,12.773058150359429
2023-03-02T10:31:25.140Z,12.794896173631788
2023-03-02T10:34:16.921Z,12.780123392607583
2023-03-02T10:37:19.788Z,12.76791979270638
2023-03-02T10:41:22.337Z,12.841141416738173
2023-03-02T10:44:21.951Z,12.849491254811529
2023-03-02T10:47:22.069Z,12.856556503012325
2023-03-02T10:51:25.987Z,12.875825364538468
2023-03-02T10:54:17.211Z,12.899590299390638
2023-03-02T10:57:29.412Z,12.945835595866175
2023-03-02T11:01:18.497Z,12.93170508610865
2023-03-02T11:04:17.111Z,12.952258555574463
2023-03-02T11:07:19.786Z,13.001073064218598
2023-03-02T11:11:22.741Z,13.119255667606286
2023-03-02T11:14:17.390Z,13.121182559154477
2023-03-02T11:17:31.089Z,13.246430597575909
2023-03-02T11:21:21.786Z,13.425631937856087
2023-03-02T11:24:21.003Z,13.515553890728915
2023-03-02T11:27:20.557Z,13.63630636765156
2023-03-02T11:31:25.729Z,13.726228529344372
2023-03-02T11:34:34.141Z,13.836062147760185
2023-03-02T11:37:20.463Z,13.90735772562366
2023-03-02T11:41:27.463Z,14.017833866863294
2023-03-02T11:44:19.538Z,14.116106361376387
2023-03-02T11:47:18.953Z,14.200890559827622
2023-03-02T11:51:21.318Z,14.206028998643978
2023-03-02T11:54:33.652Z,14.216305877149807
2023-03-02T11:57:22.066Z,14.229151976919184
2023-03-02T12:01:21.303Z,14.296594030551205
2023-03-02T12:04:27.156Z,14.315220892294837
2023-03-02T12:07:20.443Z,14.295309419537443
2023-03-02T12:11:32.580Z,14.312651669757997
2023-03-02T12:14:28.870Z,14.333847757862895
2023-03-02T12:17:21.167Z,14.35375923907859
2023-03-02T12:21:20.450Z,14.355686156847515
2023-03-02T12:24:26.953Z,14.326782394611019
2023-03-02T12:27:26.580Z,14.32999392329366
2023-03-02T12:31:16.440Z,14.317790114904437
2023-03-02T12:34:33.776Z,14.317147809245217
2023-03-02T12:37:22.841Z,14.326140088888133
2023-03-02T12:41:31.254Z,14.335132369422354
2023-03-02T12:44:33.133Z,14.317790114904437
2023-03-02T12:47:20.516Z,14.324855477456003
2023-03-02T12:51:20.339Z,14.313293975385387
2023-03-02T12:54:19.409Z,14.326782394611019
2023-03-02T12:57:19.315Z,14.286317142950429
2023-03-02T13:01:21.550Z,14.285032532082187
2023-03-02T13:04:26.105Z,14.288886364741483
2023-03-02T13:07:19.598Z,14.283747921232134
2023-03-02T13:11:23.302Z,14.270259508404797
2023-03-02T13:14:23.965Z,14.25034804551542
2023-03-02T13:17:23.255Z,14.29595172504205
2023-03-02T13:21:20.436Z,14.274755645791084
2023-03-02T13:24:29.598Z,14.29595172504205
2023-03-02T13:27:20.207Z,14.340913121665016
2023-03-02T13:31:21.938Z,14.410924483626513
2023-03-02T13:34:21.560Z,14.447535951303962
2023-03-02T13:37:30.399Z,14.531035845141105
2023-03-02T13:41:21.973Z,14.601689661491491
2023-03-02T13:44:20.033Z,14.666562759505178
2023-03-02T13:47:22.429Z,14.703816638738862
2023-03-02T13:51:18.948Z,14.76419364791509
2023-03-02T13:54:22.327Z,14.770616736362353
2023-03-02T13:57:24.261Z,14.796951403750517
2023-03-02T14:01:18.439Z,14.818789914211902
2023-03-02T14:04:21.164Z,14.798878330932713
2023-03-02T14:07:19.283Z,14.79630909469888
2023-03-02T14:11:18.079Z,14.805301421835612
2023-03-02T14:14:20.505Z,14.846409214382584
2023-03-02T14:17:22.774Z,14.861182331878899
2023-03-02T14:21:18.709Z,14.875313142169853
2023-03-02T14:24:17.250Z,14.87659776139635
2023-03-02T14:27:18.809Z,14.949178777240741
2023-03-02T14:31:19.440Z,14.950463397513158
2023-03-02T14:34:17.820Z,14.960098050136093
2023-03-02T14:37:25.204Z,14.982578910235315
2023-03-02T14:41:21.262Z,14.993498187150635
2023-03-02T14:44:17.306Z,14.994782808050605
2023-03-02T14:47:19.432Z,14.990928945405267
2023-03-02T14:51:23.278Z,14.993498187150635
2023-03-02T14:54:19.319Z,14.983221220605719
2023-03-02T14:57:19.750Z,14.990286634980293
2023-03-02T15:01:18.317Z,14.96973270378221
2023-03-02T15:04:17.539Z,14.945324916532627
2023-03-02T15:07:19.265Z,14.890086264372803
2023-03-02T15:11:17.542Z,14.845124595583547
2023-03-02T15:14:17.806Z,14.79245524048456
2023-03-02T15:17:17.646Z,14.737858990035694
2023-03-02T15:21:20.680Z,14.696751246674193
2023-03-02T15:24:18.693Z,14.628666587704448
2023-03-02T15:27:18.191Z,14.568289668722809
2023-03-02T15:31:17.455Z,14.518832009708058
2023-03-02T15:34:16.873Z,14.446251338152887
2023-03-02T15:37:16.950Z,14.378166867175697
2023-03-02T15:41:16.965Z,14.306870919316134
2023-03-02T15:44:19.397Z,14.25034804551542
2023-03-02T15:47:17.861Z,14.188686768805201
2023-03-02T15:51:17.801Z,14.120602491122918
2023-03-02T15:54:18.447Z,14.074998899739967
2023-03-02T15:57:18.188Z,14.019118473948037
2023-03-02T16:01:17.441Z,13.96837650793177
2023-03-02T16:04:17.789Z,13.913138450608766
2023-03-02T16:07:16.934Z,13.861754241433754
2023-03-02T16:11:19.519Z,13.787889491733221
2023-03-02T16:14:17.515Z,13.757059005300107
2023-03-02T16:17:18.746Z,13.73586305195504
2023-03-02T16:21:17.428Z,13.698609570197823
2023-03-02T16:24:17.584Z,13.696682666385096
2023-03-02T16:27:17.334Z,13.696040365123281
2023-03-02T16:31:19.418Z,13.655575394796688
2023-03-02T16:34:18.296Z,13.644013978018483
2023-03-02T16:37:17.241Z,13.571434006346772
2023-03-02T16:41:18.526Z,13.513626990804278
2023-03-02T16:44:18.270Z,13.506561691430761
2023-03-02T16:47:17.486Z,13.451966214825461
2023-03-02T16:51:18.626Z,13.369751912046286
2023-03-02T16:54:17.748Z,13.347271451601774
2023-03-02T16:57:17.734Z,13.292676070857215
2023-03-02T17:01:19.494Z,13.233584636959222
2023-03-02T17:04:19.014Z,13.232942338976136
2023-03-02T17:07:18.739Z,13.143020666227676
2023-03-02T17:11:16.764Z,13.132743909303098
2023-03-02T17:14:17.001Z,13.033830183430473
2023-03-02T17:17:17.175Z,13.0004307678817
2023-03-02T17:21:16.970Z,12.913078508427498
2023-03-02T17:24:17.456Z,12.839214531138078
2023-03-02T17:27:24.900Z,12.798107648085807
2023-03-02T17:31:16.174Z,12.759569962140905
2023-03-02T17:34:16.641Z,12.712682466316982
2023-03-02T17:37:17.942Z,12.6535914102049
2023-03-02T17:41:17.167Z,12.636249477129695
2023-03-02T17:44:17.432Z,12.613126904852924
2023-03-02T17:47:17.136Z,12.573947004170986
2023-03-02T17:51:16.913Z,12.496229546333144
2023-03-02T17:54:17.147Z,12.46026115863142
2023-03-02T17:57:22.465Z,12.423008200688582
2023-03-02T18:01:16.951Z,12.427504246525132
2023-03-02T18:04:17.322Z,12.383186090149048
2023-03-02T18:07:17.080Z,12.371624835524653
2023-03-02T18:11:19.265Z,12.41273152532749
2023-03-02T18:14:19.808Z,12.374836294994747
2023-03-02T18:17:17.584Z,12.312534001565746
2023-03-02T18:21:17.567Z,12.322810665576345
2023-03-02T18:24:16.672Z,12.30546879573376
2023-03-02T18:27:16.530Z,12.335656497226683
2023-03-02T18:31:18.120Z,12.339510247076486
2023-03-02T18:34:17.390Z,12.28170401651887
2023-03-02T18:37:17.313Z,12.20976742548819
2023-03-02T18:41:17.604Z,12.257296952453999
2023-03-02T18:44:18.265Z,12.279134851571234
2023-03-02T18:47:18.026Z,12.230963022274954
2023-03-02T18:51:17.403Z,12.193067867871378
2023-03-02T18:54:17.141Z,12.173799151364165
2023-03-02T18:57:16.913Z,12.176368313328657
2023-03-02T19:01:18.084Z,12.175083732337317
2023-03-02T19:04:17.718Z,12.112139286044203
2023-03-02T19:07:17.222Z,12.146822955129846
2023-03-02T19:11:17.289Z,12.150034406641861
2023-03-02T19:14:17.640Z,12.121131347126447
2023-03-02T19:17:17.565Z,12.072317311965254
2023-03-02T19:21:16.959Z,12.09351287663776
2023-03-02T19:24:17.255Z,12.067178994002552
2023-03-02T19:27:17.278Z,12.033779934339055
2023-03-02T19:31:16.725Z,12.012584383622743
2023-03-02T19:34:17.147Z,11.983039078765795
2023-03-02T19:37:16.683Z,11.97533160951607
2023-03-02T19:41:18.860Z,11.935509695491055
2023-03-02T19:44:17.203Z,11.8674271087777
2023-03-02T19:47:17.216Z,11.84430473246066
2023-03-02T19:51:16.457Z,11.82503609003179
2023-03-02T19:54:16.782Z,11.798702285331183
2023-03-02T19:57:16.788Z,11.762091886619237
2023-03-02T20:01:22.315Z,11.765303324511569
2023-03-02T20:04:17.794Z,11.795490846256508
2023-03-02T20:07:17.632Z,11.760807311494137
2023-03-02T20:11:19.821Z,11.717774055314749
2023-03-02T20:14:31.574Z,11.729977513948688
2023-03-02T20:17:17.829Z,11.731262088637232
2023-03-02T20:21:17.990Z,11.738969537150478
2023-03-02T20:24:20.445Z,11.70749745984367
2023-03-02T20:27:18.699Z,11.7049283111578
2023-03-02T20:31:19.916Z,11.673456245660782
2023-03-02T20:34:19.309Z,11.61693501258851
2023-03-02T20:37:29.019Z,11.61886187222708
2023-03-02T20:41:19.118Z,11.536006944725887
2023-03-02T20:44:23.584Z,11.473705227379924
2023-03-02T20:47:20.630Z,11.457648090668954
2023-03-02T20:51:18.965Z,11.42296468507302
2023-03-02T20:54:19.387Z,11.40176927707007
2023-03-02T20:57:24.571Z,11.364516753792941
2023-03-02T21:01:20.602Z,11.35424019833963
2023-03-02T21:04:19.470Z,11.27845063782379
2023-03-02T21:07:18.744Z,11.264320387781572
2023-03-02T21:11:21.635Z,11.234133042792383
2023-03-02T21:14:17.617Z,11.210368544229368
2023-03-02T21:17:17.148Z,11.186604051891845
2023-03-02T21:21:23.074Z,11.132652254560162
2023-03-02T21:25:18.724Z,11.095399841795734
2023-03-02T21:27:19.356Z,11.05622059660027
2023-03-02T21:31:17.836Z,11.053651466358952
2023-03-02T21:34:17.286Z,11.017041368325954
2023-03-02T21:37:16.794Z,11.002911159001815
2023-03-02T21:41:16.835Z,10.93868296254077
2023-03-02T21:44:17.194Z,10.961162826129385
2023-03-02T21:47:16.443Z,10.911707133587697
2023-03-02T21:51:17.672Z,10.8673897177222
2023-03-02T21:54:19.427Z,10.868674280196227
2023-03-02T21:57:18.779Z,10.892438689246774
2023-03-02T22:01:16.528Z,10.84169847206149
2023-03-02T22:04:16.812Z,10.839129347895597
2023-03-02T22:07:18.000Z,10.818576357187794
2023-03-02T22:11:21.743Z,10.79416968677042
2023-03-02T22:14:18.152Z,10.79995021338109
2023-03-02T22:17:20.439Z,10.778754950942766
2023-03-02T22:21:23.412Z,10.822430042590804
2023-03-02T22:24:21.651Z,10.798665651880219
2023-03-02T22:27:23.648Z,10.826926009101225
2023-03-02T22:31:20.830Z,10.801234774900148
2023-03-02T22:34:22.449Z,10.745998646006047
2023-03-02T22:37:19.756Z,10.751136889135523
2023-03-02T22:41:19.407Z,10.704250431367928
2023-03-02T22:44:19.409Z,10.68819343085379
2023-03-02T22:47:19.037Z,10.674063272752392
2023-03-02T22:51:17.874Z,10.683055191289531
2023-03-02T22:54:29.923Z,10.691404830729244
2023-03-02T22:57:29.667Z,10.661217676388333
2023-03-02T23:01:21.190Z,10.654794878888424
2023-03-02T23:04:20.878Z,10.635526489117183
2023-03-02T23:07:19.449Z,10.636811048307937
2023-03-02T23:11:18.125Z,10.611119867948947
2023-03-02T23:14:22.892Z,10.584144136402756
2023-03-02T23:17:20.273Z,10.609193029715334
2023-03-02T23:21:20.147Z,10.58992464963021
2023-03-02T23:24:19.586Z,10.574509948508876
2023-03-02T23:27:17.097Z,10.548176506819436
2023-03-02T23:31:17.122Z,10.580932740324442
2023-03-02T23:34:17.178Z,10.571298552771623
2023-03-02T23:37:17.036Z,10.5321195339312
2023-03-02T23:41:16.775Z,10.53276181279216
2023-03-02T23:44:17.517Z,10.51092433407066
2023-03-02T23:47:16.819Z,10.548176506819436
2023-03-02T23:51:17.495Z,10.491013696288519
2023-03-02T23:54:17.917Z,10.48908686060604
2023-03-02T23:57:17.388Z,10.439631425428615
